sensor_id;sensor_type;location;lat;lon;timestamp;temperature;humidity
67529;DHT22;54366;51.980;5.856;2023-08-21T00:00:53;21.40;68.90
67529;DHT22;54366;51.980;5.856;2023-08-21T00:03:26;21.30;68.90
67529;DHT22;54366;51.980;5.856;2023-08-21T00:05:59;21.30;69.10
67529;DHT22;54366;51.980;5.856;2023-08-21T00:08:32;21.30;69.30
67529;DHT22;54366;51.980;5.856;2023-08-21T00:11:05;21.30;69.60
67529;DHT22;54366;51.980;5.856;2023-08-21T00:13:38;21.30;69.50
67529;DHT22;54366;51.980;5.856;2023-08-21T00:16:05;21.20;69.00
67529;DHT22;54366;51.980;5.856;2023-08-21T00:18:37;21.20;69.40
67529;DHT22;54366;51.980;5.856;2023-08-21T00:21:10;21.20;69.70
67529;DHT22;54366;51.980;5.856;2023-08-21T00:23:43;21.20;69.90
67529;DHT22;54366;51.980;5.856;2023-08-21T00:26:09;21.10;70.00
67529;DHT22;54366;51.980;5.856;2023-08-21T00:28:42;21.10;70.00
67529;DHT22;54366;51.980;5.856;2023-08-21T00:31:15;21.10;69.70
67529;DHT22;54366;51.980;5.856;2023-08-21T00:33:48;21.10;69.60
67529;DHT22;54366;51.980;5.856;2023-08-21T00:36:15;21.00;70.20
67529;DHT22;54366;51.980;5.856;2023-08-21T00:38:47;21.00;70.60
67529;DHT22;54366;51.980;5.856;2023-08-21T00:41:14;21.00;70.90
67529;DHT22;54366;51.980;5.856;2023-08-21T00:43:47;21.00;70.80
67529;DHT22;54366;51.980;5.856;2023-08-21T00:46:20;21.00;69.70
67529;DHT22;54366;51.980;5.856;2023-08-21T00:48:53;21.00;69.60
67529;DHT22;54366;51.980;5.856;2023-08-21T00:51:26;21.00;70.40
67529;DHT22;54366;51.980;5.856;2023-08-21T00:54:06;21.00;70.70
67529;DHT22;54366;51.980;5.856;2023-08-21T00:56:33;21.00;71.00
67529;DHT22;54366;51.980;5.856;2023-08-21T00:59:06;21.00;71.20
67529;DHT22;54366;51.980;5.856;2023-08-21T01:01:40;21.00;70.80
67529;DHT22;54366;51.980;5.856;2023-08-21T01:04:07;21.00;70.80
67529;DHT22;54366;51.980;5.856;2023-08-21T01:06:40;21.00;71.20
67529;DHT22;54366;51.980;5.856;2023-08-21T01:09:33;21.00;71.50
67529;DHT22;54366;51.980;5.856;2023-08-21T01:12:25;21.00;71.80
67529;DHT22;54366;51.980;5.856;2023-08-21T01:15:08;21.00;70.90
67529;DHT22;54366;51.980;5.856;2023-08-21T01:17:43;21.00;70.80
67529;DHT22;54366;51.980;5.856;2023-08-21T01:20:18;20.90;71.00
67529;DHT22;54366;51.980;5.856;2023-08-21T01:22:51;20.90;71.40
67529;DHT22;54366;51.980;5.856;2023-08-21T01:25:17;20.90;71.50
67529;DHT22;54366;51.980;5.856;2023-08-21T01:27:50;20.80;71.60
67529;DHT22;54366;51.980;5.856;2023-08-21T01:30:17;20.80;72.10
67529;DHT22;54366;51.980;5.856;2023-08-21T01:33:06;20.70;71.50
67529;DHT22;54366;51.980;5.856;2023-08-21T01:35:38;20.70;72.40
67529;DHT22;54366;51.980;5.856;2023-08-21T01:38:11;20.70;72.60
67529;DHT22;54366;51.980;5.856;2023-08-21T01:40:46;20.70;72.70
67529;DHT22;54366;51.980;5.856;2023-08-21T01:43:13;20.70;72.60
67529;DHT22;54366;51.980;5.856;2023-08-21T01:45:46;20.60;72.50
67529;DHT22;54366;51.980;5.856;2023-08-21T01:48:18;20.60;72.20
67529;DHT22;54366;51.980;5.856;2023-08-21T01:51:00;20.60;72.10
67529;DHT22;54366;51.980;5.856;2023-08-21T01:53:32;20.50;72.70
67529;DHT22;54366;51.980;5.856;2023-08-21T01:55:59;20.50;72.80
67529;DHT22;54366;51.980;5.856;2023-08-21T01:58:33;20.50;72.70
67529;DHT22;54366;51.980;5.856;2023-08-21T02:01:05;20.50;73.00
67529;DHT22;54366;51.980;5.856;2023-08-21T02:03:41;20.40;72.90
67529;DHT22;54366;51.980;5.856;2023-08-21T02:06:08;20.50;72.60
67529;DHT22;54366;51.980;5.856;2023-08-21T02:08:40;20.40;72.20
67529;DHT22;54366;51.980;5.856;2023-08-21T02:11:07;20.40;72.40
67529;DHT22;54366;51.980;5.856;2023-08-21T02:13:39;20.40;72.50
67529;DHT22;54366;51.980;5.856;2023-08-21T02:16:13;20.40;73.00
67529;DHT22;54366;51.980;5.856;2023-08-21T02:18:45;20.40;73.10
67529;DHT22;54366;51.980;5.856;2023-08-21T02:21:19;20.40;72.80
67529;DHT22;54366;51.980;5.856;2023-08-21T02:23:52;20.40;73.40
67529;DHT22;54366;51.980;5.856;2023-08-21T02:26:18;20.40;73.30
67529;DHT22;54366;51.980;5.856;2023-08-21T02:28:52;20.40;73.40
67529;DHT22;54366;51.980;5.856;2023-08-21T02:31:19;20.40;73.50
67529;DHT22;54366;51.980;5.856;2023-08-21T02:33:51;20.40;73.60
67529;DHT22;54366;51.980;5.856;2023-08-21T02:36:19;20.40;73.60
67529;DHT22;54366;51.980;5.856;2023-08-21T02:38:51;20.40;73.60
67529;DHT22;54366;51.980;5.856;2023-08-21T02:41:18;20.50;73.70
67529;DHT22;54366;51.980;5.856;2023-08-21T02:43:50;20.40;73.60
67529;DHT22;54366;51.980;5.856;2023-08-21T02:46:17;20.50;73.40
67529;DHT22;54366;51.980;5.856;2023-08-21T02:48:50;20.50;73.00
67529;DHT22;54366;51.980;5.856;2023-08-21T02:51:17;20.50;73.20
67529;DHT22;54366;51.980;5.856;2023-08-21T02:53:50;20.50;73.40
67529;DHT22;54366;51.980;5.856;2023-08-21T02:56:29;20.50;73.40
67529;DHT22;54366;51.980;5.856;2023-08-21T02:59:02;20.50;73.30
67529;DHT22;54366;51.980;5.856;2023-08-21T03:01:29;20.50;73.20
67529;DHT22;54366;51.980;5.856;2023-08-21T03:04:01;20.50;73.70
67529;DHT22;54366;51.980;5.856;2023-08-21T03:06:36;20.50;72.80
67529;DHT22;54366;51.980;5.856;2023-08-21T03:09:08;20.50;73.10
67529;DHT22;54366;51.980;5.856;2023-08-21T03:11:36;20.50;73.30
67529;DHT22;54366;51.980;5.856;2023-08-21T03:14:08;20.50;73.70
67529;DHT22;54366;51.980;5.856;2023-08-21T03:16:41;20.50;73.30
67529;DHT22;54366;51.980;5.856;2023-08-21T03:19:14;20.50;73.10
67529;DHT22;54366;51.980;5.856;2023-08-21T03:21:47;20.50;72.70
67529;DHT22;54366;51.980;5.856;2023-08-21T03:24:21;20.50;72.50
67529;DHT22;54366;51.980;5.856;2023-08-21T03:26:48;20.50;73.50
67529;DHT22;54366;51.980;5.856;2023-08-21T03:29:21;20.50;73.50
67529;DHT22;54366;51.980;5.856;2023-08-21T03:31:54;20.50;73.80
67529;DHT22;54366;51.980;5.856;2023-08-21T03:34:27;20.50;74.00
67529;DHT22;54366;51.980;5.856;2023-08-21T03:37:02;20.50;74.00
67529;DHT22;54366;51.980;5.856;2023-08-21T03:39:35;20.50;73.80
67529;DHT22;54366;51.980;5.856;2023-08-21T03:42:10;20.50;73.40
67529;DHT22;54366;51.980;5.856;2023-08-21T03:44:38;20.50;73.50
67529;DHT22;54366;51.980;5.856;2023-08-21T03:47:11;20.50;73.30
67529;DHT22;54366;51.980;5.856;2023-08-21T03:49:56;20.50;73.00
67529;DHT22;54366;51.980;5.856;2023-08-21T03:52:35;20.50;72.90
67529;DHT22;54366;51.980;5.856;2023-08-21T03:55:14;20.50;73.10
67529;DHT22;54366;51.980;5.856;2023-08-21T03:57:48;20.50;73.00
67529;DHT22;54366;51.980;5.856;2023-08-21T04:00:14;20.50;73.10
67529;DHT22;54366;51.980;5.856;2023-08-21T04:02:47;20.40;73.10
67529;DHT22;54366;51.980;5.856;2023-08-21T04:05:15;20.40;73.60
67529;DHT22;54366;51.980;5.856;2023-08-21T04:07:48;20.40;73.70
67529;DHT22;54366;51.980;5.856;2023-08-21T04:10:15;20.40;73.40
67529;DHT22;54366;51.980;5.856;2023-08-21T04:12:48;20.30;73.10
67529;DHT22;54366;51.980;5.856;2023-08-21T04:15:15;20.30;73.00
67529;DHT22;54366;51.980;5.856;2023-08-21T04:17:47;20.30;73.50
67529;DHT22;54366;51.980;5.856;2023-08-21T04:20:20;20.20;73.90
67529;DHT22;54366;51.980;5.856;2023-08-21T04:22:56;20.20;74.00
67529;DHT22;54366;51.980;5.856;2023-08-21T04:25:23;20.20;73.70
67529;DHT22;54366;51.980;5.856;2023-08-21T04:27:55;20.20;73.40
67529;DHT22;54366;51.980;5.856;2023-08-21T04:30:28;20.10;73.50
67529;DHT22;54366;51.980;5.856;2023-08-21T04:33:02;20.10;73.90
67529;DHT22;54366;51.980;5.856;2023-08-21T04:35:38;20.10;74.40
67529;DHT22;54366;51.980;5.856;2023-08-21T04:38:11;20.10;74.10
67529;DHT22;54366;51.980;5.856;2023-08-21T04:40:44;20.10;73.90
67529;DHT22;54366;51.980;5.856;2023-08-21T04:43:11;20.10;74.10
67529;DHT22;54366;51.980;5.856;2023-08-21T04:45:49;20.10;74.20
67529;DHT22;54366;51.980;5.856;2023-08-21T04:48:24;20.10;74.20
67529;DHT22;54366;51.980;5.856;2023-08-21T04:51:04;20.10;73.80
67529;DHT22;54366;51.980;5.856;2023-08-21T04:53:43;20.10;73.80
67529;DHT22;54366;51.980;5.856;2023-08-21T04:56:19;20.10;74.10
67529;DHT22;54366;51.980;5.856;2023-08-21T04:58:48;20.10;74.30
67529;DHT22;54366;51.980;5.856;2023-08-21T05:01:22;20.10;74.40
67529;DHT22;54366;51.980;5.856;2023-08-21T05:03:57;20.20;74.70
67529;DHT22;54366;51.980;5.856;2023-08-21T05:06:30;20.20;74.70
67529;DHT22;54366;51.980;5.856;2023-08-21T05:08:57;20.20;74.20
67529;DHT22;54366;51.980;5.856;2023-08-21T05:11:29;20.20;74.00
67529;DHT22;54366;51.980;5.856;2023-08-21T05:14:03;20.20;74.00
67529;DHT22;54366;51.980;5.856;2023-08-21T05:16:35;20.20;73.70
67529;DHT22;54366;51.980;5.856;2023-08-21T05:19:08;20.20;73.70
67529;DHT22;54366;51.980;5.856;2023-08-21T05:21:35;20.20;73.70
67529;DHT22;54366;51.980;5.856;2023-08-21T05:24:07;20.20;73.90
67529;DHT22;54366;51.980;5.856;2023-08-21T05:26:47;20.20;74.10
67529;DHT22;54366;51.980;5.856;2023-08-21T05:29:20;20.20;74.20
67529;DHT22;54366;51.980;5.856;2023-08-21T05:31:53;20.20;74.10
67529;DHT22;54366;51.980;5.856;2023-08-21T05:34:27;20.20;74.30
67529;DHT22;54366;51.980;5.856;2023-08-21T05:37:01;20.20;74.20
67529;DHT22;54366;51.980;5.856;2023-08-21T05:39:34;20.30;74.30
67529;DHT22;54366;51.980;5.856;2023-08-21T05:42:01;20.30;74.40
67529;DHT22;54366;51.980;5.856;2023-08-21T05:44:35;20.30;74.40
67529;DHT22;54366;51.980;5.856;2023-08-21T05:47:09;20.30;74.50
67529;DHT22;54366;51.980;5.856;2023-08-21T05:49:41;20.40;74.40
67529;DHT22;54366;51.980;5.856;2023-08-21T05:52:15;20.30;75.00
67529;DHT22;54366;51.980;5.856;2023-08-21T05:54:48;20.40;74.60
67529;DHT22;54366;51.980;5.856;2023-08-21T05:57:28;20.40;75.20
67529;DHT22;54366;51.980;5.856;2023-08-21T06:00:02;20.40;74.60
67529;DHT22;54366;51.980;5.856;2023-08-21T06:02:41;20.40;74.60
67529;DHT22;54366;51.980;5.856;2023-08-21T06:05:35;20.50;74.80
67529;DHT22;54366;51.980;5.856;2023-08-21T06:08:08;20.50;74.30
67529;DHT22;54366;51.980;5.856;2023-08-21T06:10:35;20.60;74.10
67529;DHT22;54366;51.980;5.856;2023-08-21T06:13:08;20.60;74.10
67529;DHT22;54366;51.980;5.856;2023-08-21T06:15:43;20.70;74.30
67529;DHT22;54366;51.980;5.856;2023-08-21T06:18:11;20.70;74.30
67529;DHT22;54366;51.980;5.856;2023-08-21T06:20:44;20.80;74.20
67529;DHT22;54366;51.980;5.856;2023-08-21T06:23:32;20.80;74.30
67529;DHT22;54366;51.980;5.856;2023-08-21T06:26:04;21.00;74.10
67529;DHT22;54366;51.980;5.856;2023-08-21T06:28:44;21.00;74.10
67529;DHT22;54366;51.980;5.856;2023-08-21T06:31:18;21.10;74.10
67529;DHT22;54366;51.980;5.856;2023-08-21T06:33:50;21.20;74.10
67529;DHT22;54366;51.980;5.856;2023-08-21T06:36:23;21.30;73.30
67529;DHT22;54366;51.980;5.856;2023-08-21T06:38:57;21.40;72.20
67529;DHT22;54366;51.980;5.856;2023-08-21T06:41:30;21.40;71.60
67529;DHT22;54366;51.980;5.856;2023-08-21T06:44:04;21.50;71.10
67529;DHT22;54366;51.980;5.856;2023-08-21T06:46:30;21.60;71.40
67529;DHT22;54366;51.980;5.856;2023-08-21T06:49:04;21.60;71.80
67529;DHT22;54366;51.980;5.856;2023-08-21T06:51:36;21.60;71.50
67529;DHT22;54366;51.980;5.856;2023-08-21T06:54:16;21.60;71.50
67529;DHT22;54366;51.980;5.856;2023-08-21T06:56:50;21.70;71.60
67529;DHT22;54366;51.980;5.856;2023-08-21T06:59:23;21.70;71.80
67529;DHT22;54366;51.980;5.856;2023-08-21T07:01:56;21.80;71.50
67529;DHT22;54366;51.980;5.856;2023-08-21T07:04:29;22.00;71.40
67529;DHT22;54366;51.980;5.856;2023-08-21T07:07:02;22.10;71.40
67529;DHT22;54366;51.980;5.856;2023-08-21T07:09:35;22.10;71.00
67529;DHT22;54366;51.980;5.856;2023-08-21T07:12:02;22.20;70.60
67529;DHT22;54366;51.980;5.856;2023-08-21T07:14:35;22.30;70.10
67529;DHT22;54366;51.980;5.856;2023-08-21T07:17:08;22.40;69.70
67529;DHT22;54366;51.980;5.856;2023-08-21T07:19:35;22.50;69.50
67529;DHT22;54366;51.980;5.856;2023-08-21T07:22:07;22.60;68.60
67529;DHT22;54366;51.980;5.856;2023-08-21T07:24:40;22.70;68.10
67529;DHT22;54366;51.980;5.856;2023-08-21T07:27:07;22.90;68.30
67529;DHT22;54366;51.980;5.856;2023-08-21T07:29:39;23.00;67.10
67529;DHT22;54366;51.980;5.856;2023-08-21T07:32:06;23.10;66.80
67529;DHT22;54366;51.980;5.856;2023-08-21T07:34:38;23.20;66.90
67529;DHT22;54366;51.980;5.856;2023-08-21T07:37:11;23.30;66.70
67529;DHT22;54366;51.980;5.856;2023-08-21T07:39:44;23.40;66.30
67529;DHT22;54366;51.980;5.856;2023-08-21T07:42:11;23.50;66.00
67529;DHT22;54366;51.980;5.856;2023-08-21T07:44:45;23.50;65.60
67529;DHT22;54366;51.980;5.856;2023-08-21T07:47:18;23.60;65.60
67529;DHT22;54366;51.980;5.856;2023-08-21T07:49:51;23.60;65.00
67529;DHT22;54366;51.980;5.856;2023-08-21T07:52:18;23.60;65.50
67529;DHT22;54366;51.980;5.856;2023-08-21T07:55:04;23.60;65.60
67529;DHT22;54366;51.980;5.856;2023-08-21T07:57:36;23.60;66.20
67529;DHT22;54366;51.980;5.856;2023-08-21T08:00:10;23.60;66.30
67529;DHT22;54366;51.980;5.856;2023-08-21T08:02:44;23.70;65.30
67529;DHT22;54366;51.980;5.856;2023-08-21T08:05:17;23.70;65.40
67529;DHT22;54366;51.980;5.856;2023-08-21T08:07:50;23.70;65.80
67529;DHT22;54366;51.980;5.856;2023-08-21T08:10:24;23.70;65.60
67529;DHT22;54366;51.980;5.856;2023-08-21T08:12:57;23.80;65.80
67529;DHT22;54366;51.980;5.856;2023-08-21T08:15:24;23.80;65.10
67529;DHT22;54366;51.980;5.856;2023-08-21T08:17:57;23.90;64.90
67529;DHT22;54366;51.980;5.856;2023-08-21T08:20:30;23.90;64.10
67529;DHT22;54366;51.980;5.856;2023-08-21T08:23:03;24.00;63.90
67529;DHT22;54366;51.980;5.856;2023-08-21T08:25:35;23.90;63.60
67529;DHT22;54366;51.980;5.856;2023-08-21T08:28:02;23.90;64.00
67529;DHT22;54366;51.980;5.856;2023-08-21T08:30:35;24.00;63.40
67529;DHT22;54366;51.980;5.856;2023-08-21T08:33:08;24.10;63.40
67529;DHT22;54366;51.980;5.856;2023-08-21T08:35:42;24.10;63.40
67529;DHT22;54366;51.980;5.856;2023-08-21T08:38:08;24.30;63.40
67529;DHT22;54366;51.980;5.856;2023-08-21T08:40:46;24.50;62.00
67529;DHT22;54366;51.980;5.856;2023-08-21T08:43:19;24.60;60.90
67529;DHT22;54366;51.980;5.856;2023-08-21T08:45:52;24.70;60.80
67529;DHT22;54366;51.980;5.856;2023-08-21T08:48:26;24.70;59.80
67529;DHT22;54366;51.980;5.856;2023-08-21T08:51:00;24.70;60.50
67529;DHT22;54366;51.980;5.856;2023-08-21T08:53:27;24.80;60.70
67529;DHT22;54366;51.980;5.856;2023-08-21T08:56:00;24.90;60.00
67529;DHT22;54366;51.980;5.856;2023-08-21T08:58:33;25.10;60.00
67529;DHT22;54366;51.980;5.856;2023-08-21T09:01:06;25.30;59.50
67529;DHT22;54366;51.980;5.856;2023-08-21T09:03:39;25.30;59.00
67529;DHT22;54366;51.980;5.856;2023-08-21T09:06:06;25.40;58.10
67529;DHT22;54366;51.980;5.856;2023-08-21T09:08:42;25.50;58.60
67529;DHT22;54366;51.980;5.856;2023-08-21T09:11:25;25.70;57.70
67529;DHT22;54366;51.980;5.856;2023-08-21T09:13:53;25.70;56.90
67529;DHT22;54366;51.980;5.856;2023-08-21T09:16:26;25.70;56.90
67529;DHT22;54366;51.980;5.856;2023-08-21T09:18:58;25.80;57.30
67529;DHT22;54366;51.980;5.856;2023-08-21T09:21:31;25.90;57.00
67529;DHT22;54366;51.980;5.856;2023-08-21T09:24:04;26.00;56.50
67529;DHT22;54366;51.980;5.856;2023-08-21T09:26:37;25.90;56.30
67529;DHT22;54366;51.980;5.856;2023-08-21T09:29:04;25.90;56.50
67529;DHT22;54366;51.980;5.856;2023-08-21T09:31:37;26.00;57.00
67529;DHT22;54366;51.980;5.856;2023-08-21T09:34:11;26.10;56.90
67529;DHT22;54366;51.980;5.856;2023-08-21T09:36:38;26.30;57.00
67529;DHT22;54366;51.980;5.856;2023-08-21T09:39:17;26.50;55.90
67529;DHT22;54366;51.980;5.856;2023-08-21T09:41:55;26.60;56.40
67529;DHT22;54366;51.980;5.856;2023-08-21T09:44:27;26.90;55.60
67529;DHT22;54366;51.980;5.856;2023-08-21T09:47:01;27.10;55.50
67529;DHT22;54366;51.980;5.856;2023-08-21T09:49:34;27.20;55.50
67529;DHT22;54366;51.980;5.856;2023-08-21T09:52:04;27.30;54.00
67529;DHT22;54366;51.980;5.856;2023-08-21T09:54:42;27.30;52.80
67529;DHT22;54366;51.980;5.856;2023-08-21T09:57:22;27.40;53.00
67529;DHT22;54366;51.980;5.856;2023-08-21T09:59:54;27.50;51.50
67529;DHT22;54366;51.980;5.856;2023-08-21T10:02:28;27.60;52.10
67529;DHT22;54366;51.980;5.856;2023-08-21T10:04:54;27.70;52.00
67529;DHT22;54366;51.980;5.856;2023-08-21T10:07:28;27.90;51.50
67529;DHT22;54366;51.980;5.856;2023-08-21T10:10:02;28.00;50.60
67529;DHT22;54366;51.980;5.856;2023-08-21T10:12:28;28.20;50.20
67529;DHT22;54366;51.980;5.856;2023-08-21T10:15:02;28.30;51.00
67529;DHT22;54366;51.980;5.856;2023-08-21T10:17:30;28.50;50.30
67529;DHT22;54366;51.980;5.856;2023-08-21T10:20:07;28.50;49.70
67529;DHT22;54366;51.980;5.856;2023-08-21T10:22:47;28.70;49.40
67529;DHT22;54366;51.980;5.856;2023-08-21T10:25:25;28.80;47.80
67529;DHT22;54366;51.980;5.856;2023-08-21T10:28:00;28.70;45.60
67529;DHT22;54366;51.980;5.856;2023-08-21T10:30:35;28.70;45.00
67529;DHT22;54366;51.980;5.856;2023-08-21T10:33:08;28.90;45.30
67529;DHT22;54366;51.980;5.856;2023-08-21T10:35:42;29.00;45.90
67529;DHT22;54366;51.980;5.856;2023-08-21T10:38:10;29.00;46.20
67529;DHT22;54366;51.980;5.856;2023-08-21T10:41:06;29.10;46.60
67529;DHT22;54366;51.980;5.856;2023-08-21T10:43:43;29.30;46.20
67529;DHT22;54366;51.980;5.856;2023-08-21T10:46:16;29.50;46.30
67529;DHT22;54366;51.980;5.856;2023-08-21T10:48:43;29.70;45.30
67529;DHT22;54366;51.980;5.856;2023-08-21T10:51:16;29.80;45.80
67529;DHT22;54366;51.980;5.856;2023-08-21T10:53:56;29.90;46.10
67529;DHT22;54366;51.980;5.856;2023-08-21T10:56:31;30.10;45.20
67529;DHT22;54366;51.980;5.856;2023-08-21T10:59:04;30.20;45.70
67529;DHT22;54366;51.980;5.856;2023-08-21T11:01:44;30.30;44.10
67529;DHT22;54366;51.980;5.856;2023-08-21T11:04:16;30.40;44.00
67529;DHT22;54366;51.980;5.856;2023-08-21T11:06:51;30.40;43.30
67529;DHT22;54366;51.980;5.856;2023-08-21T11:09:24;30.50;43.10
67529;DHT22;54366;51.980;5.856;2023-08-21T11:11:58;30.60;42.90
67529;DHT22;54366;51.980;5.856;2023-08-21T11:14:30;30.80;43.50
67529;DHT22;54366;51.980;5.856;2023-08-21T11:17:04;30.90;43.00
67529;DHT22;54366;51.980;5.856;2023-08-21T11:19:37;30.90;42.60
67529;DHT22;54366;51.980;5.856;2023-08-21T11:22:04;31.00;42.30
67529;DHT22;54366;51.980;5.856;2023-08-21T11:24:49;31.10;42.60
67529;DHT22;54366;51.980;5.856;2023-08-21T11:27:22;31.20;42.50
67529;DHT22;54366;51.980;5.856;2023-08-21T11:29:55;31.20;41.50
67529;DHT22;54366;51.980;5.856;2023-08-21T11:32:29;31.30;41.30
67529;DHT22;54366;51.980;5.856;2023-08-21T11:34:57;31.40;42.40
67529;DHT22;54366;51.980;5.856;2023-08-21T11:37:30;31.40;41.10
67529;DHT22;54366;51.980;5.856;2023-08-21T11:40:08;31.60;41.40
67529;DHT22;54366;51.980;5.856;2023-08-21T11:42:41;31.70;41.10
67529;DHT22;54366;51.980;5.856;2023-08-21T11:45:14;31.80;40.10
67529;DHT22;54366;51.980;5.856;2023-08-21T11:47:47;31.90;40.50
67529;DHT22;54366;51.980;5.856;2023-08-21T11:50:21;32.00;40.10
67529;DHT22;54366;51.980;5.856;2023-08-21T11:52:55;32.00;38.90
67529;DHT22;54366;51.980;5.856;2023-08-21T11:55:41;32.00;39.70
67529;DHT22;54366;51.980;5.856;2023-08-21T11:58:17;32.10;39.40
67529;DHT22;54366;51.980;5.856;2023-08-21T12:00:50;32.10;38.70
67529;DHT22;54366;51.980;5.856;2023-08-21T12:03:24;32.20;39.10
67529;DHT22;54366;51.980;5.856;2023-08-21T12:05:57;32.30;38.70
67529;DHT22;54366;51.980;5.856;2023-08-21T12:08:29;32.30;37.70
67529;DHT22;54366;51.980;5.856;2023-08-21T12:11:03;32.30;37.80
67529;DHT22;54366;51.980;5.856;2023-08-21T12:13:30;32.30;38.20
67529;DHT22;54366;51.980;5.856;2023-08-21T12:16:03;32.40;38.40
67529;DHT22;54366;51.980;5.856;2023-08-21T12:18:30;32.50;38.30
67529;DHT22;54366;51.980;5.856;2023-08-21T12:21:03;32.50;38.50
67529;DHT22;54366;51.980;5.856;2023-08-21T12:23:36;32.60;38.40
67529;DHT22;54366;51.980;5.856;2023-08-21T12:26:08;32.60;37.90
67529;DHT22;54366;51.980;5.856;2023-08-21T12:28:41;32.70;37.70
67529;DHT22;54366;51.980;5.856;2023-08-21T12:31:08;32.70;37.40
67529;DHT22;54366;51.980;5.856;2023-08-21T12:33:40;32.70;36.90
67529;DHT22;54366;51.980;5.856;2023-08-21T12:36:13;32.80;37.60
67529;DHT22;54366;51.980;5.856;2023-08-21T12:38:47;32.80;37.40
67529;DHT22;54366;51.980;5.856;2023-08-21T12:41:13;32.80;37.20
67529;DHT22;54366;51.980;5.856;2023-08-21T12:43:46;32.80;36.60
67529;DHT22;54366;51.980;5.856;2023-08-21T12:46:12;32.80;36.60
67529;DHT22;54366;51.980;5.856;2023-08-21T12:48:45;32.80;36.40
67529;DHT22;54366;51.980;5.856;2023-08-21T12:51:18;32.60;37.10
67529;DHT22;54366;51.980;5.856;2023-08-21T12:53:57;32.60;37.20
67529;DHT22;54366;51.980;5.856;2023-08-21T12:56:37;32.60;38.00
67529;DHT22;54366;51.980;5.856;2023-08-21T12:59:03;32.70;37.70
67529;DHT22;54366;51.980;5.856;2023-08-21T13:01:35;32.60;37.80
67529;DHT22;54366;51.980;5.856;2023-08-21T13:04:10;32.70;37.50
67529;DHT22;54366;51.980;5.856;2023-08-21T13:06:43;32.70;37.20
67529;DHT22;54366;51.980;5.856;2023-08-21T13:09:16;32.70;37.40
67529;DHT22;54366;51.980;5.856;2023-08-21T13:11:48;32.60;37.50
67529;DHT22;54366;51.980;5.856;2023-08-21T13:14:22;32.60;37.00
67529;DHT22;54366;51.980;5.856;2023-08-21T13:16:55;32.60;37.10
67529;DHT22;54366;51.980;5.856;2023-08-21T13:19:27;32.50;36.90
67529;DHT22;54366;51.980;5.856;2023-08-21T13:22:01;32.40;37.00
67529;DHT22;54366;51.980;5.856;2023-08-21T13:24:34;32.40;37.50
67529;DHT22;54366;51.980;5.856;2023-08-21T13:27:00;32.40;38.40
67529;DHT22;54366;51.980;5.856;2023-08-21T13:29:33;32.40;37.70
67529;DHT22;54366;51.980;5.856;2023-08-21T13:32:06;32.30;37.20
67529;DHT22;54366;51.980;5.856;2023-08-21T13:34:39;32.40;37.30
67529;DHT22;54366;51.980;5.856;2023-08-21T13:37:12;32.30;36.70
67529;DHT22;54366;51.980;5.856;2023-08-21T13:39:45;32.20;37.10
67529;DHT22;54366;51.980;5.856;2023-08-21T13:42:11;32.20;37.50
67529;DHT22;54366;51.980;5.856;2023-08-21T13:44:44;32.10;37.60
67529;DHT22;54366;51.980;5.856;2023-08-21T13:47:18;32.00;36.90
67529;DHT22;54366;51.980;5.856;2023-08-21T13:49:51;31.90;36.70
67529;DHT22;54366;51.980;5.856;2023-08-21T13:52:30;31.80;37.00
67529;DHT22;54366;51.980;5.856;2023-08-21T13:55:13;31.70;36.80
67529;DHT22;54366;51.980;5.856;2023-08-21T13:57:47;31.60;37.30
67529;DHT22;54366;51.980;5.856;2023-08-21T14:00:20;31.50;36.70
67529;DHT22;54366;51.980;5.856;2023-08-21T14:02:53;31.50;36.60
67529;DHT22;54366;51.980;5.856;2023-08-21T14:05:26;31.40;36.30
67529;DHT22;54366;51.980;5.856;2023-08-21T14:08:00;31.30;36.60
67529;DHT22;54366;51.980;5.856;2023-08-21T14:10:33;31.20;37.10
67529;DHT22;54366;51.980;5.856;2023-08-21T14:12:59;31.10;36.70
67529;DHT22;54366;51.980;5.856;2023-08-21T14:15:32;31.00;37.10
67529;DHT22;54366;51.980;5.856;2023-08-21T14:17:58;30.90;36.80
67529;DHT22;54366;51.980;5.856;2023-08-21T14:20:31;30.90;37.50
67529;DHT22;54366;51.980;5.856;2023-08-21T14:23:04;30.80;37.30
67529;DHT22;54366;51.980;5.856;2023-08-21T14:25:37;30.70;37.10
67529;DHT22;54366;51.980;5.856;2023-08-21T14:28:10;30.60;36.50
67529;DHT22;54366;51.980;5.856;2023-08-21T14:30:43;30.60;36.90
67529;DHT22;54366;51.980;5.856;2023-08-21T14:33:11;30.50;37.00
67529;DHT22;54366;51.980;5.856;2023-08-21T14:35:44;30.40;37.60
67529;DHT22;54366;51.980;5.856;2023-08-21T14:38:17;30.40;38.60
67529;DHT22;54366;51.980;5.856;2023-08-21T14:40:43;30.30;38.90
67529;DHT22;54366;51.980;5.856;2023-08-21T14:43:16;30.30;38.30
67529;DHT22;54366;51.980;5.856;2023-08-21T14:45:42;30.30;38.30
67529;DHT22;54366;51.980;5.856;2023-08-21T14:48:15;30.30;38.40
67529;DHT22;54366;51.980;5.856;2023-08-21T14:50:48;30.30;38.80
67529;DHT22;54366;51.980;5.856;2023-08-21T14:53:14;30.30;38.20
67529;DHT22;54366;51.980;5.856;2023-08-21T14:55:53;30.30;38.40
67529;DHT22;54366;51.980;5.856;2023-08-21T14:58:26;30.30;38.30
67529;DHT22;54366;51.980;5.856;2023-08-21T15:00:54;30.20;37.90
67529;DHT22;54366;51.980;5.856;2023-08-21T15:03:29;30.20;38.10
67529;DHT22;54366;51.980;5.856;2023-08-21T15:06:02;30.20;38.10
67529;DHT22;54366;51.980;5.856;2023-08-21T15:08:28;30.10;38.10
67529;DHT22;54366;51.980;5.856;2023-08-21T15:11:02;30.10;37.00
67529;DHT22;54366;51.980;5.856;2023-08-21T15:13:39;30.10;37.70
67529;DHT22;54366;51.980;5.856;2023-08-21T15:16:12;30.00;38.10
67529;DHT22;54366;51.980;5.856;2023-08-21T15:18:45;30.00;36.90
67529;DHT22;54366;51.980;5.856;2023-08-21T15:21:20;29.90;38.10
67529;DHT22;54366;51.980;5.856;2023-08-21T15:23:53;29.90;38.70
67529;DHT22;54366;51.980;5.856;2023-08-21T15:26:19;29.90;38.90
67529;DHT22;54366;51.980;5.856;2023-08-21T15:28:53;29.80;39.10
67529;DHT22;54366;51.980;5.856;2023-08-21T15:31:26;29.80;38.80
67529;DHT22;54366;51.980;5.856;2023-08-21T15:33:59;29.80;39.10
67529;DHT22;54366;51.980;5.856;2023-08-21T15:36:32;29.80;38.90
67529;DHT22;54366;51.980;5.856;2023-08-21T15:39:05;29.70;38.60
67529;DHT22;54366;51.980;5.856;2023-08-21T15:41:38;29.70;38.70
67529;DHT22;54366;51.980;5.856;2023-08-21T15:44:11;29.70;39.40
67529;DHT22;54366;51.980;5.856;2023-08-21T15:46:44;29.70;39.50
67529;DHT22;54366;51.980;5.856;2023-08-21T15:49:17;29.60;39.50
67529;DHT22;54366;51.980;5.856;2023-08-21T15:51:50;29.60;39.50
67529;DHT22;54366;51.980;5.856;2023-08-21T15:54:33;29.50;39.10
67529;DHT22;54366;51.980;5.856;2023-08-21T15:57:13;29.50;39.10
67529;DHT22;54366;51.980;5.856;2023-08-21T15:59:46;29.50;39.60
67529;DHT22;54366;51.980;5.856;2023-08-21T16:02:12;29.50;39.40
67529;DHT22;54366;51.980;5.856;2023-08-21T16:04:45;29.50;39.20